sensor_id;sensor_type;location;lat;lon;timestamp;P1;durP1;ratioP1;P2;durP2;ratioP2
27857;SDS011;16852;51.446;6.528;2023-07-13T00:01:26;4.13;;;1.35;;
27857;SDS011;16852;51.446;6.528;2023-07-13T00:03:27;3.72;;;1.20;;
27857;SDS011;16852;51.446;6.528;2023-07-13T00:05:27;3.72;;;1.30;;
27857;SDS011;16852;51.446;6.528;2023-07-13T00:07:28;2.88;;;1.20;;
27857;SDS011;16852;51.446;6.528;2023-07-13T00:09:29;2.92;;;1.10;;
27857;SDS011;16852;51.446;6.528;2023-07-13T00:11:29;4.35;;;1.40;;
27857;SDS011;16852;51.446;6.528;2023-07-13T00:13:30;3.05;;;0.88;;
27857;SDS011;16852;51.446;6.528;2023-07-13T00:15:31;3.70;;;1.08;;
27857;SDS011;16852;51.446;6.528;2023-07-13T00:17:32;1.58;;;1.00;;
27857;SDS011;16852;51.446;6.528;2023-07-13T00:19:32;2.80;;;1.02;;
27857;SDS011;16852;51.446;6.528;2023-07-13T00:21:36;2.80;;;1.10;;
27857;SDS011;16852;51.446;6.528;2023-07-13T00:23:38;3.20;;;1.17;;
27857;SDS011;16852;51.446;6.528;2023-07-13T00:25:40;3.40;;;1.17;;
27857;SDS011;16852;51.446;6.528;2023-07-13T00:27:41;3.65;;;1.25;;
27857;SDS011;16852;51.446;6.528;2023-07-13T00:29:43;3.78;;;1.20;;
27857;SDS011;16852;51.446;6.528;2023-07-13T00:31:44;3.28;;;1.25;;
27857;SDS011;16852;51.446;6.528;2023-07-13T00:33:46;2.47;;;0.93;;
27857;SDS011;16852;51.446;6.528;2023-07-13T00:35:46;4.13;;;1.15;;
27857;SDS011;16852;51.446;6.528;2023-07-13T00:37:47;3.20;;;1.20;;
27857;SDS011;16852;51.446;6.528;2023-07-13T00:39:49;1.92;;;0.80;;
27857;SDS011;16852;51.446;6.528;2023-07-13T00:41:49;5.68;;;1.20;;
27857;SDS011;16852;51.446;6.528;2023-07-13T00:43:50;2.15;;;0.90;;
27857;SDS011;16852;51.446;6.528;2023-07-13T00:47:51;4.60;;;0.85;;
27857;SDS011;16852;51.446;6.528;2023-07-13T00:49:51;2.10;;;0.80;;
27857;SDS011;16852;51.446;6.528;2023-07-13T00:51:57;1.98;;;0.95;;
27857;SDS011;16852;51.446;6.528;2023-07-13T00:54:03;2.17;;;1.00;;
27857;SDS011;16852;51.446;6.528;2023-07-13T00:56:07;1.23;;;0.80;;
27857;SDS011;16852;51.446;6.528;2023-07-13T00:58:08;2.72;;;0.90;;
27857;SDS011;16852;51.446;6.528;2023-07-13T01:00:09;3.58;;;1.10;;
27857;SDS011;16852;51.446;6.528;2023-07-13T01:02:12;4.05;;;1.05;;
27857;SDS011;16852;51.446;6.528;2023-07-13T01:04:12;1.67;;;0.90;;
27857;SDS011;16852;51.446;6.528;2023-07-13T01:06:14;3.15;;;1.20;;
27857;SDS011;16852;51.446;6.528;2023-07-13T01:08:17;3.85;;;1.25;;
27857;SDS011;16852;51.446;6.528;2023-07-13T01:10:21;2.50;;;0.93;;
27857;SDS011;16852;51.446;6.528;2023-07-13T01:12:22;1.85;;;1.02;;
27857;SDS011;16852;51.446;6.528;2023-07-13T01:14:23;2.78;;;0.98;;
27857;SDS011;16852;51.446;6.528;2023-07-13T01:16:25;4.13;;;1.40;;
27857;SDS011;16852;51.446;6.528;2023-07-13T01:18:27;3.83;;;1.00;;
27857;SDS011;16852;51.446;6.528;2023-07-13T01:20:29;4.05;;;0.88;;
27857;SDS011;16852;51.446;6.528;2023-07-13T01:22:30;2.42;;;1.20;;
27857;SDS011;16852;51.446;6.528;2023-07-13T01:24:32;1.42;;;0.65;;
27857;SDS011;16852;51.446;6.528;2023-07-13T01:26:33;2.92;;;1.00;;
27857;SDS011;16852;51.446;6.528;2023-07-13T01:28:33;2.15;;;1.00;;
27857;SDS011;16852;51.446;6.528;2023-07-13T01:30:37;2.72;;;1.00;;
27857;SDS011;16852;51.446;6.528;2023-07-13T01:32:40;2.65;;;1.17;;
27857;SDS011;16852;51.446;6.528;2023-07-13T01:34:41;2.93;;;1.03;;
27857;SDS011;16852;51.446;6.528;2023-07-13T01:36:42;1.90;;;1.13;;
27857;SDS011;16852;51.446;6.528;2023-07-13T01:38:42;3.25;;;1.15;;
27857;SDS011;16852;51.446;6.528;2023-07-13T01:40:43;2.25;;;0.93;;
27857;SDS011;16852;51.446;6.528;2023-07-13T01:42:44;5.00;;;1.23;;
27857;SDS011;16852;51.446;6.528;2023-07-13T01:44:44;3.20;;;1.05;;
27857;SDS011;16852;51.446;6.528;2023-07-13T01:46:45;2.60;;;1.10;;
27857;SDS011;16852;51.446;6.528;2023-07-13T01:48:46;1.80;;;0.90;;
27857;SDS011;16852;51.446;6.528;2023-07-13T01:50:46;3.53;;;1.23;;
27857;SDS011;16852;51.446;6.528;2023-07-13T01:52:47;3.80;;;1.02;;
27857;SDS011;16852;51.446;6.528;2023-07-13T01:54:48;3.97;;;1.50;;
27857;SDS011;16852;51.446;6.528;2023-07-13T01:56:49;3.33;;;1.15;;
27857;SDS011;16852;51.446;6.528;2023-07-13T01:58:49;3.15;;;1.13;;
27857;SDS011;16852;51.446;6.528;2023-07-13T02:00:51;5.15;;;1.10;;
27857;SDS011;16852;51.446;6.528;2023-07-13T02:02:51;1.30;;;0.90;;
27857;SDS011;16852;51.446;6.528;2023-07-13T02:04:52;3.83;;;1.25;;
27857;SDS011;16852;51.446;6.528;2023-07-13T02:06:53;2.03;;;0.93;;
27857;SDS011;16852;51.446;6.528;2023-07-13T02:08:55;3.38;;;0.85;;
27857;SDS011;16852;51.446;6.528;2023-07-13T02:10:56;3.85;;;1.15;;
27857;SDS011;16852;51.446;6.528;2023-07-13T02:12:56;5.72;;;1.08;;
27857;SDS011;16852;51.446;6.528;2023-07-13T02:14:58;5.63;;;1.30;;
27857;SDS011;16852;51.446;6.528;2023-07-13T02:16:58;4.03;;;1.58;;
27857;SDS011;16852;51.446;6.528;2023-07-13T02:18:59;4.13;;;1.30;;
27857;SDS011;16852;51.446;6.528;2023-07-13T02:21:00;2.60;;;1.17;;
27857;SDS011;16852;51.446;6.528;2023-07-13T02:23:02;3.17;;;1.40;;
27857;SDS011;16852;51.446;6.528;2023-07-13T02:25:02;1.95;;;0.90;;
27857;SDS011;16852;51.446;6.528;2023-07-13T02:27:03;3.40;;;1.20;;
27857;SDS011;16852;51.446;6.528;2023-07-13T02:29:04;3.42;;;1.23;;
27857;SDS011;16852;51.446;6.528;2023-07-13T02:31:06;2.80;;;1.17;;
27857;SDS011;16852;51.446;6.528;2023-07-13T02:35:08;3.83;;;1.00;;
27857;SDS011;16852;51.446;6.528;2023-07-13T02:37:09;3.92;;;1.20;;
27857;SDS011;16852;51.446;6.528;2023-07-13T02:39:10;3.35;;;1.33;;
27857;SDS011;16852;51.446;6.528;2023-07-13T02:41:13;4.40;;;1.27;;
27857;SDS011;16852;51.446;6.528;2023-07-13T02:43:13;3.20;;;1.15;;
27857;SDS011;16852;51.446;6.528;2023-07-13T02:45:14;3.80;;;1.63;;
27857;SDS011;16852;51.446;6.528;2023-07-13T02:47:14;2.42;;;1.00;;
27857;SDS011;16852;51.446;6.528;2023-07-13T02:49:15;3.72;;;1.27;;
27857;SDS011;16852;51.446;6.528;2023-07-13T02:51:16;3.85;;;1.38;;
27857;SDS011;16852;51.446;6.528;2023-07-13T02:53:16;5.30;;;1.55;;
27857;SDS011;16852;51.446;6.528;2023-07-13T02:55:17;3.78;;;1.55;;
27857;SDS011;16852;51.446;6.528;2023-07-13T02:57:17;4.65;;;1.35;;
27857;SDS011;16852;51.446;6.528;2023-07-13T02:59:18;2.75;;;1.20;;
27857;SDS011;16852;51.446;6.528;2023-07-13T03:01:18;3.05;;;1.30;;
27857;SDS011;16852;51.446;6.528;2023-07-13T03:03:21;3.33;;;1.17;;
27857;SDS011;16852;51.446;6.528;2023-07-13T03:05:22;3.92;;;1.48;;
27857;SDS011;16852;51.446;6.528;2023-07-13T03:07:22;2.47;;;1.17;;
27857;SDS011;16852;51.446;6.528;2023-07-13T03:09:24;3.63;;;1.65;;
27857;SDS011;16852;51.446;6.528;2023-07-13T03:11:25;2.30;;;1.20;;
27857;SDS011;16852;51.446;6.528;2023-07-13T03:13:26;4.53;;;1.70;;
27857;SDS011;16852;51.446;6.528;2023-07-13T03:15:26;2.95;;;1.08;;
27857;SDS011;16852;51.446;6.528;2023-07-13T03:17:27;4.53;;;1.38;;
27857;SDS011;16852;51.446;6.528;2023-07-13T03:19:28;2.92;;;1.45;;
27857;SDS011;16852;51.446;6.528;2023-07-13T03:21:28;4.00;;;1.10;;
27857;SDS011;16852;51.446;6.528;2023-07-13T03:23:29;3.30;;;1.35;;
27857;SDS011;16852;51.446;6.528;2023-07-13T03:25:29;4.95;;;1.27;;
27857;SDS011;16852;51.446;6.528;2023-07-13T03:27:30;4.15;;;1.50;;
27857;SDS011;16852;51.446;6.528;2023-07-13T03:29:31;3.17;;;1.35;;
27857;SDS011;16852;51.446;6.528;2023-07-13T03:31:33;4.72;;;1.70;;
27857;SDS011;16852;51.446;6.528;2023-07-13T03:33:35;4.38;;;1.50;;
27857;SDS011;16852;51.446;6.528;2023-07-13T03:35:39;2.22;;;0.90;;
27857;SDS011;16852;51.446;6.528;2023-07-13T03:37:40;3.45;;;1.23;;
27857;SDS011;16852;51.446;6.528;2023-07-13T03:39:42;2.95;;;1.27;;
27857;SDS011;16852;51.446;6.528;2023-07-13T03:41:42;6.03;;;1.73;;
27857;SDS011;16852;51.446;6.528;2023-07-13T03:43:43;6.13;;;1.65;;
27857;SDS011;16852;51.446;6.528;2023-07-13T03:45:44;3.40;;;1.52;;
27857;SDS011;16852;51.446;6.528;2023-07-13T03:47:44;2.22;;;0.98;;
27857;SDS011;16852;51.446;6.528;2023-07-13T03:49:45;5.70;;;1.60;;
27857;SDS011;16852;51.446;6.528;2023-07-13T03:51:46;5.50;;;1.75;;
27857;SDS011;16852;51.446;6.528;2023-07-13T03:53:47;2.65;;;1.33;;
27857;SDS011;16852;51.446;6.528;2023-07-13T03:55:48;3.92;;;1.13;;
27857;SDS011;16852;51.446;6.528;2023-07-13T03:57:53;3.55;;;1.30;;
27857;SDS011;16852;51.446;6.528;2023-07-13T03:59:58;6.32;;;1.65;;
27857;SDS011;16852;51.446;6.528;2023-07-13T04:01:59;2.35;;;1.25;;
27857;SDS011;16852;51.446;6.528;2023-07-13T04:04:00;4.35;;;1.58;;
27857;SDS011;16852;51.446;6.528;2023-07-13T04:06:01;4.78;;;1.67;;
27857;SDS011;16852;51.446;6.528;2023-07-13T04:10:04;6.57;;;1.90;;
27857;SDS011;16852;51.446;6.528;2023-07-13T04:12:05;2.78;;;1.63;;
27857;SDS011;16852;51.446;6.528;2023-07-13T04:14:06;3.13;;;1.30;;
27857;SDS011;16852;51.446;6.528;2023-07-13T04:16:07;8.60;;;1.75;;
27857;SDS011;16852;51.446;6.528;2023-07-13T04:18:07;3.75;;;1.27;;
27857;SDS011;16852;51.446;6.528;2023-07-13T04:20:09;2.97;;;1.20;;
27857;SDS011;16852;51.446;6.528;2023-07-13T04:22:10;5.85;;;1.67;;
27857;SDS011;16852;51.446;6.528;2023-07-13T04:24:10;5.22;;;1.63;;
27857;SDS011;16852;51.446;6.528;2023-07-13T04:26:11;5.13;;;1.50;;
27857;SDS011;16852;51.446;6.528;2023-07-13T04:28:11;4.82;;;1.77;;
27857;SDS011;16852;51.446;6.528;2023-07-13T04:30:12;2.78;;;1.20;;
27857;SDS011;16852;51.446;6.528;2023-07-13T04:32:13;5.68;;;1.77;;
27857;SDS011;16852;51.446;6.528;2023-07-13T04:34:14;3.42;;;1.27;;
27857;SDS011;16852;51.446;6.528;2023-07-13T04:36:15;3.60;;;1.60;;
27857;SDS011;16852;51.446;6.528;2023-07-13T04:38:16;4.07;;;1.52;;
27857;SDS011;16852;51.446;6.528;2023-07-13T04:40:17;3.92;;;1.40;;
27857;SDS011;16852;51.446;6.528;2023-07-13T04:42:18;5.47;;;1.88;;
27857;SDS011;16852;51.446;6.528;2023-07-13T04:44:19;4.28;;;1.60;;
27857;SDS011;16852;51.446;6.528;2023-07-13T04:46:19;4.72;;;1.42;;
27857;SDS011;16852;51.446;6.528;2023-07-13T04:48:20;6.38;;;1.60;;
27857;SDS011;16852;51.446;6.528;2023-07-13T04:50:21;3.25;;;1.67;;
27857;SDS011;16852;51.446;6.528;2023-07-13T04:52:23;2.92;;;1.33;;
27857;SDS011;16852;51.446;6.528;2023-07-13T04:54:24;3.75;;;1.58;;
27857;SDS011;16852;51.446;6.528;2023-07-13T04:56:25;6.47;;;1.90;;
27857;SDS011;16852;51.446;6.528;2023-07-13T04:58:26;7.82;;;1.95;;
27857;SDS011;16852;51.446;6.528;2023-07-13T05:00:28;4.15;;;1.52;;
27857;SDS011;16852;51.446;6.528;2023-07-13T05:02:29;9.98;;;1.80;;
27857;SDS011;16852;51.446;6.528;2023-07-13T05:04:31;4.90;;;1.87;;
27857;SDS011;16852;51.446;6.528;2023-07-13T05:06:32;3.70;;;1.52;;
27857;SDS011;16852;51.446;6.528;2023-07-13T05:08:33;4.18;;;1.73;;
27857;SDS011;16852;51.446;6.528;2023-07-13T05:10:34;3.63;;;1.90;;
27857;SDS011;16852;51.446;6.528;2023-07-13T05:12:35;3.67;;;1.42;;
27857;SDS011;16852;51.446;6.528;2023-07-13T05:14:36;5.97;;;2.05;;
27857;SDS011;16852;51.446;6.528;2023-07-13T05:16:37;6.53;;;1.52;;
27857;SDS011;16852;51.446;6.528;2023-07-13T05:18:37;6.25;;;1.90;;
27857;SDS011;16852;51.446;6.528;2023-07-13T05:20:38;3.33;;;1.33;;
27857;SDS011;16852;51.446;6.528;2023-07-13T05:22:38;6.07;;;1.60;;
27857;SDS011;16852;51.446;6.528;2023-07-13T05:24:39;11.60;;;2.45;;
27857;SDS011;16852;51.446;6.528;2023-07-13T05:26:39;5.88;;;2.15;;
27857;SDS011;16852;51.446;6.528;2023-07-13T05:28:40;6.80;;;2.08;;
27857;SDS011;16852;51.446;6.528;2023-07-13T05:30:45;5.32;;;2.10;;
27857;SDS011;16852;51.446;6.528;2023-07-13T05:32:46;8.60;;;2.25;;
27857;SDS011;16852;51.446;6.528;2023-07-13T05:34:47;5.47;;;1.95;;
27857;SDS011;16852;51.446;6.528;2023-07-13T05:36:48;4.78;;;1.80;;
27857;SDS011;16852;51.446;6.528;2023-07-13T05:38:49;6.07;;;1.77;;
27857;SDS011;16852;51.446;6.528;2023-07-13T05:40:49;4.00;;;2.00;;
27857;SDS011;16852;51.446;6.528;2023-07-13T05:42:50;7.80;;;2.30;;
27857;SDS011;16852;51.446;6.528;2023-07-13T05:44:51;5.65;;;1.85;;
27857;SDS011;16852;51.446;6.528;2023-07-13T05:46:52;9.77;;;2.45;;
27857;SDS011;16852;51.446;6.528;2023-07-13T05:48:52;7.45;;;2.33;;
27857;SDS011;16852;51.446;6.528;2023-07-13T05:50:53;8.40;;;2.65;;
27857;SDS011;16852;51.446;6.528;2023-07-13T05:52:53;8.95;;;2.00;;
27857;SDS011;16852;51.446;6.528;2023-07-13T05:54:54;4.80;;;1.92;;
27857;SDS011;16852;51.446;6.528;2023-07-13T05:56:55;9.82;;;2.45;;
27857;SDS011;16852;51.446;6.528;2023-07-13T05:58:56;5.75;;;2.40;;
27857;SDS011;16852;51.446;6.528;2023-07-13T06:01:04;4.70;;;1.90;;
27857;SDS011;16852;51.446;6.528;2023-07-13T06:03:07;4.68;;;2.10;;
27857;SDS011;16852;51.446;6.528;2023-07-13T06:05:07;6.65;;;1.80;;
27857;SDS011;16852;51.446;6.528;2023-07-13T06:07:08;5.13;;;1.98;;
27857;SDS011;16852;51.446;6.528;2023-07-13T06:09:09;5.18;;;2.15;;
27857;SDS011;16852;51.446;6.528;2023-07-13T06:11:12;6.90;;;2.30;;
27857;SDS011;16852;51.446;6.528;2023-07-13T06:13:18;6.40;;;2.15;;
27857;SDS011;16852;51.446;6.528;2023-07-13T06:15:19;8.57;;;2.80;;
27857;SDS011;16852;51.446;6.528;2023-07-13T06:17:19;11.65;;;2.33;;
27857;SDS011;16852;51.446;6.528;2023-07-13T06:19:20;10.10;;;2.60;;
27857;SDS011;16852;51.446;6.528;2023-07-13T06:21:21;6.60;;;2.38;;
27857;SDS011;16852;51.446;6.528;2023-07-13T06:23:23;7.07;;;2.72;;
27857;SDS011;16852;51.446;6.528;2023-07-13T06:25:26;7.68;;;2.40;;
27857;SDS011;16852;51.446;6.528;2023-07-13T06:27:26;5.25;;;2.13;;
27857;SDS011;16852;51.446;6.528;2023-07-13T06:29:27;7.82;;;2.58;;
27857;SDS011;16852;51.446;6.528;2023-07-13T06:31:28;7.10;;;2.55;;
27857;SDS011;16852;51.446;6.528;2023-07-13T06:33:28;7.65;;;2.53;;
27857;SDS011;16852;51.446;6.528;2023-07-13T06:35:29;6.85;;;2.65;;
27857;SDS011;16852;51.446;6.528;2023-07-13T06:37:29;7.32;;;2.42;;
27857;SDS011;16852;51.446;6.528;2023-07-13T06:39:30;6.95;;;2.17;;
27857;SDS011;16852;51.446;6.528;2023-07-13T06:41:31;7.82;;;2.20;;
27857;SDS011;16852;51.446;6.528;2023-07-13T06:43:32;4.82;;;1.90;;
27857;SDS011;16852;51.446;6.528;2023-07-13T06:45:40;6.43;;;2.35;;
27857;SDS011;16852;51.446;6.528;2023-07-13T06:47:42;4.97;;;2.05;;
27857;SDS011;16852;51.446;6.528;2023-07-13T06:49:42;10.52;;;2.88;;
27857;SDS011;16852;51.446;6.528;2023-07-13T06:51:43;10.25;;;2.60;;
27857;SDS011;16852;51.446;6.528;2023-07-13T06:53:44;4.75;;;2.17;;
27857;SDS011;16852;51.446;6.528;2023-07-13T06:55:45;6.30;;;2.13;;
27857;SDS011;16852;51.446;6.528;2023-07-13T06:57:46;7.28;;;2.40;;
27857;SDS011;16852;51.446;6.528;2023-07-13T06:59:46;8.23;;;2.80;;
27857;SDS011;16852;51.446;6.528;2023-07-13T07:01:47;8.18;;;2.65;;
27857;SDS011;16852;51.446;6.528;2023-07-13T07:03:47;5.13;;;2.28;;
27857;SDS011;16852;51.446;6.528;2023-07-13T07:05:48;7.55;;;2.25;;
27857;SDS011;16852;51.446;6.528;2023-07-13T07:07:49;7.15;;;2.50;;
27857;SDS011;16852;51.446;6.528;2023-07-13T07:09:50;10.75;;;2.80;;
27857;SDS011;16852;51.446;6.528;2023-07-13T07:11:51;7.78;;;2.33;;
27857;SDS011;16852;51.446;6.528;2023-07-13T07:13:52;7.13;;;2.85;;
27857;SDS011;16852;51.446;6.528;2023-07-13T07:15:53;6.30;;;2.50;;
27857;SDS011;16852;51.446;6.528;2023-07-13T07:17:54;8.10;;;2.90;;
27857;SDS011;16852;51.446;6.528;2023-07-13T07:19:54;7.03;;;2.63;;
27857;SDS011;16852;51.446;6.528;2023-07-13T07:21:55;5.88;;;2.58;;
27857;SDS011;16852;51.446;6.528;2023-07-13T07:23:56;7.55;;;2.60;;
27857;SDS011;16852;51.446;6.528;2023-07-13T07:25:56;8.07;;;2.38;;
27857;SDS011;16852;51.446;6.528;2023-07-13T07:27:57;4.55;;;2.10;;
27857;SDS011;16852;51.446;6.528;2023-07-13T07:29:59;10.52;;;2.95;;
27857;SDS011;16852;51.446;6.528;2023-07-13T07:32:00;7.45;;;2.40;;
27857;SDS011;16852;51.446;6.528;2023-07-13T07:34:00;10.10;;;2.85;;
27857;SDS011;16852;51.446;6.528;2023-07-13T07:36:01;8.65;;;3.13;;
27857;SDS011;16852;51.446;6.528;2023-07-13T07:38:03;6.47;;;2.80;;
27857;SDS011;16852;51.446;6.528;2023-07-13T07:40:04;8.85;;;2.92;;
27857;SDS011;16852;51.446;6.528;2023-07-13T07:42:05;9.82;;;3.10;;
27857;SDS011;16852;51.446;6.528;2023-07-13T07:44:06;7.13;;;2.58;;
27857;SDS011;16852;51.446;6.528;2023-07-13T07:46:09;6.47;;;2.50;;
27857;SDS011;16852;51.446;6.528;2023-07-13T07:48:10;10.57;;;3.22;;
27857;SDS011;16852;51.446;6.528;2023-07-13T07:50:11;7.43;;;2.65;;
27857;SDS011;16852;51.446;6.528;2023-07-13T07:52:12;12.93;;;3.15;;
27857;SDS011;16852;51.446;6.528;2023-07-13T07:54:12;6.85;;;2.60;;
27857;SDS011;16852;51.446;6.528;2023-07-13T07:56:19;7.35;;;2.75;;
27857;SDS011;16852;51.446;6.528;2023-07-13T07:58:20;6.20;;;2.30;;
27857;SDS011;16852;51.446;6.528;2023-07-13T08:00:20;8.10;;;2.65;;
27857;SDS011;16852;51.446;6.528;2023-07-13T08:02:21;10.95;;;2.85;;
27857;SDS011;16852;51.446;6.528;2023-07-13T08:04:22;9.30;;;2.65;;
27857;SDS011;16852;51.446;6.528;2023-07-13T08:06:23;5.97;;;2.72;;
27857;SDS011;16852;51.446;6.528;2023-07-13T08:08:24;9.52;;;2.63;;
27857;SDS011;16852;51.446;6.528;2023-07-13T08:10:25;6.15;;;2.10;;
27857;SDS011;16852;51.446;6.528;2023-07-13T08:12:26;6.30;;;2.42;;
27857;SDS011;16852;51.446;6.528;2023-07-13T08:14:27;10.18;;;2.83;;
27857;SDS011;16852;51.446;6.528;2023-07-13T08:16:28;5.00;;;2.35;;
27857;SDS011;16852;51.446;6.528;2023-07-13T08:18:28;15.32;;;3.63;;
27857;SDS011;16852;51.446;6.528;2023-07-13T08:20:29;6.47;;;2.35;;
27857;SDS011;16852;51.446;6.528;2023-07-13T08:22:29;8.30;;;2.70;;
27857;SDS011;16852;51.446;6.528;2023-07-13T08:24:30;4.40;;;2.15;;
27857;SDS011;16852;51.446;6.528;2023-07-13T08:26:31;5.63;;;2.45;;
27857;SDS011;16852;51.446;6.528;2023-07-13T08:28:31;7.63;;;2.92;;
27857;SDS011;16852;51.446;6.528;2023-07-13T08:30:33;12.73;;;3.27;;
27857;SDS011;16852;51.446;6.528;2023-07-13T08:32:34;7.18;;;2.50;;
27857;SDS011;16852;51.446;6.528;2023-07-13T08:34:36;9.75;;;2.90;;
27857;SDS011;16852;51.446;6.528;2023-07-13T08:36:36;4.70;;;2.13;;
27857;SDS011;16852;51.446;6.528;2023-07-13T08:38:37;8.13;;;2.92;;
27857;SDS011;16852;51.446;6.528;2023-07-13T08:40:38;7.95;;;2.65;;
27857;SDS011;16852;51.446;6.528;2023-07-13T08:42:42;8.45;;;3.05;;
27857;SDS011;16852;51.446;6.528;2023-07-13T08:44:50;7.43;;;2.65;;
27857;SDS011;16852;51.446;6.528;2023-07-13T08:47:14;6.55;;;2.67;;
27857;SDS011;16852;51.446;6.528;2023-07-13T08:49:17;8.13;;;2.50;;
27857;SDS011;16852;51.446;6.528;2023-07-13T08:51:34;10.32;;;3.40;;
27857;SDS011;16852;51.446;6.528;2023-07-13T08:53:42;5.78;;;2.60;;
27857;SDS011;16852;51.446;6.528;2023-07-13T08:55:48;3.90;;;2.20;;
27857;SDS011;16852;51.446;6.528;2023-07-13T08:57:59;8.85;;;2.70;;
27857;SDS011;16852;51.446;6.528;2023-07-13T09:00:03;5.90;;;2.53;;
27857;SDS011;16852;51.446;6.528;2023-07-13T09:02:23;7.82;;;2.63;;
27857;SDS011;16852;51.446;6.528;2023-07-13T09:04:50;6.90;;;2.47;;
27857;SDS011;16852;51.446;6.528;2023-07-13T09:07:10;7.15;;;2.75;;
27857;SDS011;16852;51.446;6.528;2023-07-13T09:12:09;8.73;;;2.88;;
27857;SDS011;16852;51.446;6.528;2023-07-13T09:14:41;5.85;;;2.63;;
27857;SDS011;16852;51.446;6.528;2023-07-13T09:16:50;5.35;;;2.13;;
27857;SDS011;16852;51.446;6.528;2023-07-13T09:18:51;6.97;;;2.30;;
27857;SDS011;16852;51.446;6.528;2023-07-13T09:21:15;6.35;;;2.50;;
27857;SDS011;16852;51.446;6.528;2023-07-13T09:23:21;8.82;;;2.85;;
27857;SDS011;16852;51.446;6.528;2023-07-13T09:25:29;8.93;;;2.85;;
27857;SDS011;16852;51.446;6.528;2023-07-13T09:27:38;9.55;;;2.97;;
27857;SDS011;16852;51.446;6.528;2023-07-13T09:29:41;9.38;;;3.22;;
27857;SDS011;16852;51.446;6.528;2023-07-13T09:32:22;7.18;;;2.45;;
27857;SDS011;16852;51.446;6.528;2023-07-13T09:34:26;8.68;;;2.80;;
27857;SDS011;16852;51.446;6.528;2023-07-13T09:36:31;9.27;;;3.50;;
27857;SDS011;16852;51.446;6.528;2023-07-13T09:38:34;11.00;;;2.95;;
27857;SDS011;16852;51.446;6.528;2023-07-13T09:42:46;9.27;;;2.88;;
27857;SDS011;16852;51.446;6.528;2023-07-13T09:46:57;11.35;;;3.28;;
27857;SDS011;16852;51.446;6.528;2023-07-13T09:48:58;7.70;;;2.20;;
27857;SDS011;16852;51.446;6.528;2023-07-13T09:50:58;7.50;;;2.53;;
27857;SDS011;16852;51.446;6.528;2023-07-13T09:53:19;5.40;;;2.45;;
27857;SDS011;16852;51.446;6.528;2023-07-13T09:55:33;6.63;;;2.60;;
27857;SDS011;16852;51.446;6.528;2023-07-13T09:57:36;7.97;;;2.80;;
27857;SDS011;16852;51.446;6.528;2023-07-13T09:59:48;5.43;;;1.83;;
27857;SDS011;16852;51.446;6.528;2023-07-13T10:03:53;5.90;;;2.08;;
27857;SDS011;16852;51.446;6.528;2023-07-13T10:05:54;7.55;;;1.85;;
27857;SDS011;16852;51.446;6.528;2023-07-13T10:08:21;6.15;;;2.20;;
27857;SDS011;16852;51.446;6.528;2023-07-13T10:10:30;5.35;;;1.88;;
27857;SDS011;16852;51.446;6.528;2023-07-13T10:12:35;4.82;;;1.83;;
27857;SDS011;16852;51.446;6.528;2023-07-13T10:14:37;8.63;;;2.28;;
27857;SDS011;16852;51.446;6.528;2023-07-13T10:16:39;6.35;;;2.00;;
27857;SDS011;16852;51.446;6.528;2023-07-13T10:18:45;8.40;;;2.47;;
27857;SDS011;16852;51.446;6.528;2023-07-13T10:20:53;4.32;;;2.03;;
27857;SDS011;16852;51.446;6.528;2023-07-13T10:23:10;12.95;;;3.35;;
27857;SDS011;16852;51.446;6.528;2023-07-13T10:25:24;5.15;;;2.08;;
27857;SDS011;16852;51.446;6.528;2023-07-13T10:27:35;7.22;;;2.10;;
27857;SDS011;16852;51.446;6.528;2023-07-13T10:29:37;7.05;;;2.00;;
27857;SDS011;16852;51.446;6.528;2023-07-13T10:31:44;3.80;;;1.58;;
27857;SDS011;16852;51.446;6.528;2023-07-13T10:35:45;6.80;;;2.05;;
27857;SDS011;16852;51.446;6.528;2023-07-13T10:39:55;6.97;;;2.20;;
27857;SDS011;16852;51.446;6.528;2023-07-13T10:41:58;5.80;;;1.83;;
27857;SDS011;16852;51.446;6.528;2023-07-13T10:44:02;4.05;;;1.60;;
27857;SDS011;16852;51.446;6.528;2023-07-13T10:46:08;8.00;;;2.08;;
27857;SDS011;16852;51.446;6.528;2023-07-13T10:48:12;6.72;;;2.10;;
27857;SDS011;16852;51.446;6.528;2023-07-13T10:50:19;6.10;;;1.92;;
27857;SDS011;16852;51.446;6.528;2023-07-13T10:54:41;5.78;;;2.30;;
27857;SDS011;16852;51.446;6.528;2023-07-13T10:56:43;9.10;;;2.45;;
27857;SDS011;16852;51.446;6.528;2023-07-13T10:58:44;6.07;;;2.13;;
27857;SDS011;16852;51.446;6.528;2023-07-13T11:00:50;2.55;;;1.67;;
27857;SDS011;16852;51.446;6.528;2023-07-13T11:02:59;4.30;;;1.77;;
27857;SDS011;16852;51.446;6.528;2023-07-13T11:05:13;4.70;;;1.70;;
27857;SDS011;16852;51.446;6.528;2023-07-13T11:07:29;3.13;;;1.50;;
27857;SDS011;16852;51.446;6.528;2023-07-13T11:09:38;8.27;;;2.42;;
27857;SDS011;16852;51.446;6.528;2023-07-13T11:11:40;4.13;;;1.83;;
27857;SDS011;16852;51.446;6.528;2023-07-13T11:15:47;3.58;;;1.58;;
27857;SDS011;16852;51.446;6.528;2023-07-13T11:17:49;6.35;;;1.90;;
27857;SDS011;16852;51.446;6.528;2023-07-13T11:22:16;6.68;;;2.15;;
27857;SDS011;16852;51.446;6.528;2023-07-13T11:24:21;5.30;;;1.63;;
27857;SDS011;16852;51.446;6.528;2023-07-13T11:26:37;4.65;;;1.90;;
27857;SDS011;16852;51.446;6.528;2023-07-13T11:28:48;3.55;;;1.60;;
27857;SDS011;16852;51.446;6.528;2023-07-13T11:35:23;6.35;;;1.70;;
27857;SDS011;16852;51.446;6.528;2023-07-13T11:37:26;3.75;;;1.70;;
27857;SDS011;16852;51.446;6.528;2023-07-13T11:39:30;5.75;;;1.80;;
27857;SDS011;16852;51.446;6.528;2023-07-13T11:41:52;4.55;;;1.52;;
27857;SDS011;16852;51.446;6.528;2023-07-13T11:44:07;4.97;;;1.80;;
27857;SDS011;16852;51.446;6.528;2023-07-13T11:46:13;6.28;;;1.40;;
27857;SDS011;16852;51.446;6.528;2023-07-13T11:48:28;6.43;;;1.70;;
27857;SDS011;16852;51.446;6.528;2023-07-13T11:50:31;3.88;;;1.58;;
27857;SDS011;16852;51.446;6.528;2023-07-13T11:52:33;4.95;;;1.40;;
27857;SDS011;16852;51.446;6.528;2023-07-13T11:54:43;3.60;;;1.73;;
27857;SDS011;16852;51.446;6.528;2023-07-13T11:56:59;3.55;;;1.27;;
27857;SDS011;16852;51.446;6.528;2023-07-13T11:59:07;3.17;;;1.30;;
27857;SDS011;16852;51.446;6.528;2023-07-13T12:01:28;7.65;;;1.98;;
27857;SDS011;16852;51.446;6.528;2023-07-13T12:03:33;6.30;;;1.58;;
27857;SDS011;16852;51.446;6.528;2023-07-13T12:05:35;4.25;;;1.70;;
27857;SDS011;16852;51.446;6.528;2023-07-13T12:07:37;6.43;;;2.00;;
27857;SDS011;16852;51.446;6.528;2023-07-13T12:09:38;6.53;;;2.30;;
27857;SDS011;16852;51.446;6.528;2023-07-13T12:11:42;2.83;;;1.08;;
27857;SDS011;16852;51.446;6.528;2023-07-13T12:13:44;5.45;;;1.63;;
27857;SDS011;16852;51.446;6.528;2023-07-13T12:15:46;4.53;;;1.70;;
27857;SDS011;16852;51.446;6.528;2023-07-13T12:17:48;2.53;;;1.33;;
27857;SDS011;16852;51.446;6.528;2023-07-13T12:19:50;4.25;;;1.73;;
27857;SDS011;16852;51.446;6.528;2023-07-13T12:21:53;4.20;;;1.77;;
27857;SDS011;16852;51.446;6.528;2023-07-13T12:23:56;4.32;;;1.63;;
27857;SDS011;16852;51.446;6.528;2023-07-13T12:25:57;6.80;;;1.67;;
27857;SDS011;16852;51.446;6.528;2023-07-13T12:27:59;2.95;;;1.20;;
27857;SDS011;16852;51.446;6.528;2023-07-13T12:30:28;3.50;;;1.40;;
27857;SDS011;16852;51.446;6.528;2023-07-13T12:32:33;6.63;;;1.70;;
27857;SDS011;16852;51.446;6.528;2023-07-13T12:34:49;7.13;;;2.10;;
27857;SDS011;16852;51.446;6.528;2023-07-13T12:36:53;3.50;;;1.20;;
27857;SDS011;16852;51.446;6.528;2023-07-13T12:39:04;3.10;;;1.40;;
27857;SDS011;16852;51.446;6.528;2023-07-13T12:41:16;4.38;;;1.83;;
27857;SDS011;16852;51.446;6.528;2023-07-13T12:43:17;4.82;;;1.95;;
27857;SDS011;16852;51.446;6.528;2023-07-13T12:45:22;3.70;;;1.45;;
27857;SDS011;16852;51.446;6.528;2023-07-13T12:47:28;3.13;;;1.55;;
27857;SDS011;16852;51.446;6.528;2023-07-13T12:49:29;5.95;;;1.52;;
27857;SDS011;16852;51.446;6.528;2023-07-13T12:51:35;3.15;;;1.20;;
27857;SDS011;16852;51.446;6.528;2023-07-13T12:53:39;2.85;;;1.30;;